createdAt,value
2019-04-22T00:01:05.800Z,101689.00
2019-04-22T00:03:49.733Z,101686.05
2019-04-22T00:06:39.285Z,101681.09
2019-04-22T00:09:19.184Z,101682.34
2019-04-22T00:11:59.247Z,101676.58
2019-04-22T00:14:30.923Z,101677.04
2019-04-22T00:17:16.670Z,101669.49
2019-04-22T00:19:55.520Z,101672.58
2019-04-22T00:22:27.424Z,101670.86
2019-04-22T00:25:03.371Z,101665.95
2019-04-22T00:27:41.179Z,101661.63
2019-04-22T00:30:16.548Z,101653.26
2019-04-22T00:33:04.780Z,101659.22
2019-04-22T00:35:38.059Z,101653.08
2019-04-22T00:38:17.226Z,101650.91
2019-04-22T00:40:56.221Z,101648.27
2019-04-22T00:43:37.510Z,101646.95
2019-04-22T00:46:11.314Z,101648.19
2019-04-22T00:49:07.054Z,101642.99
2019-04-22T00:51:22.487Z,101651.20
2019-04-22T00:54:03.824Z,101642.53
2019-04-22T00:56:35.666Z,101638.48
2019-04-22T00:59:13.160Z,101643.81
2019-04-22T01:01:57.684Z,101640.34
2019-04-22T01:04:34.787Z,101643.02
2019-04-22T01:07:03.615Z,101635.55
2019-04-22T01:09:46.528Z,101634.36
2019-04-22T01:12:26.341Z,101637.54
2019-04-22T01:15:05.861Z,101631.80
2019-04-22T01:17:41.772Z,101635.12
2019-04-22T01:22:48.967Z,101632.85
2019-04-22T01:25:26.308Z,101631.95
2019-04-22T01:27:57.180Z,101631.07
2019-04-22T01:30:30.357Z,101627.78
2019-04-22T01:33:05.669Z,101625.12
2019-04-22T01:35:53.882Z,101623.08
2019-04-22T01:38:31.339Z,101611.88
2019-04-22T01:41:16.426Z,101620.41
2019-04-22T01:44:00.615Z,101615.70
2019-04-22T01:46:31.813Z,101617.54
2019-04-22T01:49:12.562Z,101609.91
2019-04-22T01:51:51.798Z,101614.84
2019-04-22T01:54:22.223Z,101612.83
2019-04-22T01:56:52.629Z,101612.48
2019-04-22T01:59:29.115Z,101606.14
2019-04-22T02:02:10.562Z,101601.79
2019-04-22T02:04:51.416Z,101601.31
2019-04-22T02:07:25.391Z,101600.33
2019-04-22T02:09:56.030Z,101594.39
2019-04-22T02:15:13.806Z,101596.50
2019-04-22T02:17:56.856Z,101596.80
2019-04-22T02:20:25.305Z,101593.94
2019-04-22T02:23:45.875Z,101590.75
2019-04-22T02:28:39.987Z,101592.56
2019-04-22T02:39:17.459Z,101584.12
2019-04-22T02:41:49.752Z,101585.06
2019-04-22T02:44:29.748Z,101583.09
2019-04-22T02:47:15.686Z,101581.36
2019-04-22T02:52:25.831Z,101575.12
2019-04-22T02:57:35.253Z,101567.98
2019-04-22T03:00:18.404Z,101563.89
2019-04-22T03:03:03.871Z,101555.47
2019-04-22T03:05:41.066Z,101561.04
2019-04-22T03:08:23.580Z,101561.04
2019-04-22T03:16:10.779Z,101542.00
2019-04-22T03:21:16.038Z,101535.76
2019-04-22T03:29:04.551Z,101535.13
2019-04-22T03:37:21.361Z,101528.07
2019-04-22T03:45:10.174Z,101520.56
2019-04-22T03:50:22.719Z,101518.34
2019-04-22T03:55:30.564Z,101512.52
2019-04-22T03:58:11.059Z,101520.21
2019-04-22T04:06:00.200Z,101522.78
2019-04-22T04:08:33.509Z,101518.33
2019-04-22T04:11:07.076Z,101523.45
2019-04-22T04:14:03.468Z,101527.45
2019-04-22T04:16:30.718Z,101519.50
2019-04-22T04:21:41.865Z,101533.11
2019-04-22T04:32:30.980Z,101527.97
2019-04-22T04:37:42.265Z,101526.25
2019-04-22T04:40:11.645Z,101522.95
2019-04-22T04:42:53.751Z,101522.48
2019-04-22T04:45:31.972Z,101523.05
2019-04-22T04:50:47.375Z,101522.09
2019-04-22T04:53:23.209Z,101520.70
2019-04-22T04:56:10.786Z,101528.31
2019-04-22T05:09:22.437Z,101527.62
2019-04-22T05:12:08.712Z,101526.27
2019-04-22T05:14:26.506Z,101522.77
2019-04-22T05:17:15.745Z,101526.83
2019-04-22T05:19:41.256Z,101520.38
2019-04-22T05:24:53.328Z,101512.86
2019-04-22T05:27:37.727Z,101516.15
2019-04-22T05:30:23.770Z,101511.81
2019-04-22T05:32:55.229Z,101517.02
2019-04-22T05:35:23.123Z,101521.02
2019-04-22T05:38:04.512Z,101519.88
2019-04-22T05:40:34.447Z,101522.14
2019-04-22T05:43:09.346Z,101515.98
2019-04-22T05:45:42.993Z,101517.70
2019-04-22T05:48:27.362Z,101518.77
2019-04-22T05:51:04.452Z,101520.67
2019-04-22T05:53:40.289Z,101519.78
2019-04-22T05:56:23.872Z,101516.00
2019-04-22T06:01:38.812Z,101525.27
2019-04-22T06:06:45.352Z,101526.86
2019-04-22T06:09:27.474Z,101520.88
2019-04-22T06:11:55.457Z,101517.61
2019-04-22T06:14:40.373Z,101513.38
2019-04-22T06:17:24.728Z,101522.27
2019-04-22T06:20:00.606Z,101507.97
2019-04-22T06:25:24.529Z,101516.39
2019-04-22T06:27:53.926Z,101515.17
2019-04-22T06:30:41.457Z,101515.80
2019-04-22T06:33:05.834Z,101516.64
2019-04-22T06:35:57.890Z,101516.94
2019-04-22T06:38:32.968Z,101524.48
2019-04-22T06:41:04.506Z,101513.49
2019-04-22T06:43:34.948Z,101517.20
2019-04-22T06:46:16.974Z,101518.91
2019-04-22T06:48:47.928Z,101511.85
2019-04-22T06:51:29.195Z,101513.72
2019-04-22T06:54:03.390Z,101512.19
2019-04-22T06:56:43.068Z,101503.27
2019-04-22T06:59:18.866Z,101507.30
2019-04-22T07:01:59.829Z,101504.98
2019-04-22T07:04:27.960Z,101506.36
2019-04-22T07:07:08.111Z,101498.17
2019-04-22T07:09:48.711Z,101498.20
2019-04-22T07:12:24.353Z,101499.30
2019-04-22T07:15:01.690Z,101503.86
2019-04-22T07:17:39.431Z,101499.66
2019-04-22T07:20:10.555Z,101498.95
2019-04-22T07:22:45.549Z,101494.19
2019-04-22T07:25:23.414Z,101495.80
2019-04-22T07:27:58.326Z,101497.13
2019-04-22T07:30:40.981Z,101499.78
2019-04-22T07:33:22.914Z,101496.89
2019-04-22T07:36:10.779Z,101494.53
2019-04-22T07:38:26.894Z,101492.91
2019-04-22T07:41:02.153Z,101488.71
2019-04-22T07:43:59.832Z,101491.66
2019-04-22T07:46:19.850Z,101493.23
2019-04-22T07:49:00.067Z,101485.83
2019-04-22T07:51:32.965Z,101485.83
2019-04-22T07:54:11.163Z,101486.05
2019-04-22T07:56:50.684Z,101489.20
2019-04-22T08:00:05.558Z,101481.48
2019-04-22T08:02:37.439Z,101476.44
2019-04-22T08:05:12.415Z,101476.41
2019-04-22T08:07:51.453Z,101474.55
2019-04-22T08:10:31.410Z,101475.59
2019-04-22T08:13:06.591Z,101471.82
2019-04-22T08:18:17.427Z,101464.47
2019-04-22T08:20:55.460Z,101463.52
2019-04-22T08:23:39.910Z,101462.83
2019-04-22T08:26:13.531Z,101467.30
2019-04-22T08:28:56.049Z,101460.06
2019-04-22T08:31:32.050Z,101459.95
2019-04-22T08:34:02.082Z,101457.13
2019-04-22T08:37:10.314Z,101460.78
2019-04-22T08:39:21.741Z,101458.77
2019-04-22T08:41:50.899Z,101455.88
2019-04-22T08:44:52.092Z,101458.71
2019-04-22T08:47:29.176Z,101450.89
2019-04-22T08:49:50.766Z,101454.33
2019-04-22T08:53:06.181Z,101442.14
2019-04-22T08:55:41.800Z,101441.52
2019-04-22T08:58:21.679Z,101431.45
2019-04-22T09:00:52.845Z,101443.12
2019-04-22T09:03:27.579Z,101438.22
2019-04-22T09:06:04.802Z,101424.77
2019-04-22T09:08:42.328Z,101436.14
2019-04-22T09:11:25.233Z,101434.58
2019-04-22T09:13:57.268Z,101428.49
2019-04-22T09:16:33.316Z,101434.95
2019-04-22T09:19:05.724Z,101430.50
2019-04-22T09:21:45.472Z,101436.13
2019-04-22T09:24:23.641Z,101434.48
2019-04-22T09:27:18.753Z,101437.56
2019-04-22T09:30:06.333Z,101425.56
2019-04-22T09:35:16.889Z,101429.19
2019-04-22T09:37:57.299Z,101422.57
2019-04-22T09:40:31.534Z,101419.17
2019-04-22T09:43:11.430Z,101415.01
2019-04-22T09:45:48.007Z,101404.80
2019-04-22T09:48:32.673Z,101400.89
2019-04-22T09:51:00.458Z,101399.64
2019-04-22T09:53:47.251Z,101400.59
2019-04-22T09:56:19.390Z,101391.26
2019-04-22T09:58:58.964Z,101393.19
2019-04-22T10:04:20.157Z,101381.65
2019-04-22T10:06:40.550Z,101376.03
2019-04-22T10:11:56.349Z,101366.91
2019-04-22T10:14:38.399Z,101366.34
2019-04-22T10:17:15.482Z,101365.00
2019-04-22T10:20:06.794Z,101354.80
2019-04-22T10:22:35.547Z,101356.19
2019-04-22T10:25:08.693Z,101360.60
2019-04-22T10:27:45.623Z,101353.64
2019-04-22T10:30:24.561Z,101346.91
2019-04-22T10:32:52.321Z,101342.28
2019-04-22T10:35:17.107Z,101337.36
2019-04-22T10:37:50.236Z,101345.60
2019-04-22T10:40:36.309Z,101337.53
2019-04-22T10:43:12.099Z,101329.14
2019-04-22T10:45:48.099Z,101322.50
2019-04-22T10:48:24.109Z,101331.15
2019-04-22T10:51:00.630Z,101316.97
2019-04-22T10:53:37.406Z,101306.64
2019-04-22T10:56:12.774Z,101309.62
2019-04-22T10:58:48.922Z,101308.77
2019-04-22T11:01:25.666Z,101308.95
2019-04-22T11:04:01.540Z,101303.90
2019-04-22T11:06:40.926Z,101300.84
2019-04-22T11:09:16.583Z,101303.36
2019-04-22T11:12:01.427Z,101304.94
2019-04-22T11:14:28.852Z,101290.07
2019-04-22T11:17:05.649Z,101292.31
2019-04-22T11:19:41.577Z,101285.09
2019-04-22T11:22:26.510Z,101279.86
2019-04-22T11:24:59.924Z,101274.61
2019-04-22T11:27:35.230Z,101268.34
2019-04-22T11:30:11.426Z,101270.33
2019-04-22T11:32:46.652Z,101258.45
2019-04-22T11:35:22.018Z,101263.19
2019-04-22T11:37:56.945Z,101255.19
2019-04-22T11:40:38.416Z,101251.34
2019-04-22T11:43:12.401Z,101250.12
2019-04-22T11:45:51.287Z,101246.38
2019-04-22T11:48:27.025Z,101232.67
2019-04-22T11:51:02.409Z,101235.09
2019-04-22T11:53:38.644Z,101245.20
2019-04-22T11:56:14.125Z,101232.88
2019-04-22T11:58:49.125Z,101236.77
2019-04-22T12:01:24.664Z,101230.13
2019-04-22T12:03:59.972Z,101231.70
2019-04-22T12:06:36.011Z,101224.05
2019-04-22T12:09:13.555Z,101226.59
2019-04-22T12:11:49.507Z,101224.32
2019-04-22T12:14:25.788Z,101214.55
2019-04-22T12:17:03.727Z,101210.15
2019-04-22T12:19:40.097Z,101203.68
2019-04-22T12:22:15.448Z,101205.83
2019-04-22T12:24:50.482Z,101193.28
2019-04-22T12:27:26.769Z,101191.35
2019-04-22T12:30:02.997Z,101196.36
2019-04-22T12:32:39.174Z,101189.69
2019-04-22T12:35:15.665Z,101174.61
2019-04-22T12:37:55.634Z,101182.14
2019-04-22T12:40:38.250Z,101177.94
2019-04-22T12:43:06.195Z,101173.03
2019-04-22T12:45:42.435Z,101167.11
2019-04-22T12:48:18.981Z,101166.77
2019-04-22T12:50:56.459Z,101155.23
2019-04-22T12:53:31.966Z,101153.50
2019-04-22T12:56:09.194Z,101147.17
2019-04-22T12:58:45.574Z,101147.81
2019-04-22T13:01:21.237Z,101150.25
2019-04-22T13:04:03.189Z,101140.19
2019-04-22T13:06:33.325Z,101138.14
2019-04-22T13:09:10.535Z,101142.28
2019-04-22T13:11:45.987Z,101144.08
2019-04-22T13:14:21.288Z,101135.28
2019-04-22T13:16:57.599Z,101133.20
2019-04-22T13:19:33.965Z,101116.64
2019-04-22T13:22:09.322Z,101123.58
2019-04-22T13:24:45.738Z,101119.47
2019-04-22T13:27:21.247Z,101105.48
2019-04-22T13:29:57.131Z,101105.65
2019-04-22T13:32:32.494Z,101114.41
2019-04-22T13:35:08.994Z,101097.91
2019-04-22T13:37:44.306Z,101089.45
2019-04-22T13:40:21.071Z,101094.94
2019-04-22T13:42:56.133Z,101086.05
2019-04-22T13:45:31.808Z,101084.22
2019-04-22T13:48:24.108Z,101085.58
2019-04-22T13:51:15.097Z,101087.12
2019-04-22T13:54:18.866Z,101077.17
2019-04-22T13:56:19.369Z,101075.11
2019-04-22T13:58:52.406Z,101071.09
2019-04-22T14:01:18.618Z,101063.38
2019-04-22T14:04:04.901Z,101065.06
2019-04-22T14:06:40.765Z,101062.05
2019-04-22T14:09:17.210Z,101055.05
2019-04-22T14:11:58.595Z,101057.02
2019-04-22T14:14:30.255Z,101050.44
2019-04-22T14:17:07.047Z,101051.73
2019-04-22T14:19:44.763Z,101052.70
2019-04-22T14:22:22.039Z,101037.16
2019-04-22T14:24:58.662Z,101044.94
2019-04-22T14:27:46.202Z,101047.52
2019-04-22T14:30:12.547Z,101040.29
2019-04-22T14:32:49.082Z,101040.05
2019-04-22T14:35:25.003Z,101028.54
2019-04-22T14:38:01.402Z,101025.63
2019-04-22T14:40:37.254Z,101024.25
2019-04-22T14:43:45.722Z,101024.67
2019-04-22T14:48:49.827Z,101025.63
2019-04-22T14:51:20.525Z,101019.59
2019-04-22T14:54:00.024Z,101006.80
2019-04-22T14:56:18.138Z,101011.88
2019-04-22T14:59:29.208Z,101006.78
2019-04-22T15:02:05.818Z,101004.61
2019-04-22T15:04:41.600Z,100994.82
2019-04-22T15:07:19.181Z,100993.86
2019-04-22T15:10:29.853Z,100996.34
2019-04-22T15:13:05.440Z,100999.77
2019-04-22T15:16:05.836Z,100982.10
2019-04-22T15:18:45.972Z,100984.11
2019-04-22T15:21:23.029Z,100988.41
2019-04-22T15:24:02.412Z,100979.83
2019-04-22T15:26:38.201Z,100976.99
2019-04-22T15:29:13.712Z,100976.33
2019-04-22T15:31:49.295Z,100977.02
2019-04-22T15:34:30.359Z,100965.84
2019-04-22T15:37:06.496Z,100968.61
2019-04-22T15:39:41.855Z,100974.31
2019-04-22T15:42:22.713Z,100970.14
2019-04-22T15:44:53.960Z,100970.99
2019-04-22T15:47:29.304Z,100965.27
2019-04-22T15:50:05.992Z,100960.87
2019-04-22T15:52:47.880Z,100955.34
2019-04-22T15:55:18.735Z,100959.86
2019-04-22T15:57:54.048Z,100953.89
2019-04-22T16:00:44.557Z,100951.34
2019-04-22T16:03:12.506Z,100954.92
2019-04-22T16:05:48.072Z,100950.62
2019-04-22T16:08:24.732Z,100959.95
2019-04-22T16:11:00.045Z,100951.15
2019-04-22T16:13:37.997Z,100952.83
2019-04-22T16:16:12.506Z,100951.94
2019-04-22T16:18:48.599Z,100950.41
2019-04-22T16:21:33.813Z,100948.30
2019-04-22T16:24:20.217Z,100945.55
2019-04-22T16:27:20.644Z,100946.64
2019-04-22T16:29:57.142Z,100948.80
2019-04-22T16:32:33.732Z,100942.06
2019-04-22T16:35:10.531Z,100940.56
2019-04-22T16:37:46.570Z,100940.16
2019-04-22T16:40:22.839Z,100933.55
2019-04-22T16:43:02.369Z,100925.95
2019-04-22T16:45:40.063Z,100930.39
2019-04-22T16:48:15.826Z,100931.66
2019-04-22T16:50:52.805Z,100923.44
2019-04-22T16:53:29.457Z,100928.70
2019-04-22T16:56:11.180Z,100928.20
2019-04-22T16:58:46.517Z,100932.73
2019-04-22T17:01:56.635Z,100924.86
2019-04-22T17:05:05.130Z,100930.61
2019-04-22T17:07:40.347Z,100929.30
2019-04-22T17:10:17.774Z,100924.39
2019-04-22T17:13:01.553Z,100927.41
2019-04-22T17:15:31.218Z,100928.03
2019-04-22T17:18:07.420Z,100930.00
2019-04-22T17:20:42.681Z,100927.98
2019-04-22T17:23:17.831Z,100936.09
2019-04-22T17:25:54.427Z,100933.38
2019-04-22T17:28:31.189Z,100934.88
2019-04-22T17:31:08.738Z,100936.34
2019-04-22T17:33:44.680Z,100938.77
2019-04-22T17:36:20.270Z,100933.16
2019-04-22T17:39:43.546Z,100935.47
2019-04-22T17:42:25.185Z,100939.41
2019-04-22T17:45:22.018Z,100936.36
2019-04-22T17:48:18.235Z,100932.14
2019-04-22T17:51:03.091Z,100927.44
2019-04-22T17:53:34.841Z,100941.30
2019-04-22T17:56:15.659Z,100939.30
2019-04-22T17:58:46.391Z,100938.27
2019-04-22T18:01:24.975Z,100940.27
2019-04-22T18:03:48.581Z,100951.19
2019-04-22T18:06:45.270Z,100950.64
2019-04-22T18:09:14.618Z,100964.11
2019-04-22T18:11:51.220Z,100954.27
2019-04-22T18:14:43.393Z,100958.98
2019-04-22T18:17:07.061Z,100955.16
2019-04-22T18:19:43.057Z,100954.89
2019-04-22T18:22:38.154Z,100964.33
2019-04-22T18:25:20.339Z,100963.52
2019-04-22T18:28:15.070Z,100961.02
2019-04-22T18:30:34.756Z,100971.64
2019-04-22T18:33:18.592Z,100969.96
2019-04-22T18:35:54.017Z,100974.82
2019-04-22T18:38:39.738Z,100973.61
2019-04-22T18:41:05.029Z,100979.95
2019-04-22T18:43:47.758Z,100983.53
2019-04-22T18:46:25.416Z,100979.98
2019-04-22T18:49:00.684Z,100983.27
2019-04-22T18:52:05.861Z,100987.17
2019-04-22T18:54:48.419Z,100983.85
2019-04-22T18:57:23.721Z,100991.53
2019-04-22T18:59:45.305Z,100991.73
2019-04-22T19:02:23.593Z,100997.52
2019-04-22T19:05:08.459Z,100995.44
2019-04-22T19:08:00.676Z,101011.09
2019-04-22T19:10:46.330Z,101007.75
2019-04-22T19:13:34.810Z,101007.96
2019-04-22T19:15:54.322Z,101006.87
2019-04-22T19:18:29.833Z,101004.55
2019-04-22T19:21:02.694Z,101014.68
2019-04-22T19:23:43.438Z,101017.02
2019-04-22T19:26:28.812Z,101020.26
2019-04-22T19:28:49.469Z,101019.77
2019-04-22T19:31:43.857Z,101025.98
2019-04-22T19:34:03.009Z,101021.45
2019-04-22T19:36:48.566Z,101017.84
2019-04-22T19:39:13.230Z,101022.97
2019-04-22T19:42:06.844Z,101020.52
2019-04-22T19:44:34.247Z,101022.14
2019-04-22T19:49:55.905Z,101031.90
2019-04-22T19:52:30.271Z,101023.63
2019-04-22T19:55:03.332Z,101031.41
2019-04-22T19:57:34.577Z,101024.68
2019-04-22T20:00:28.357Z,101024.70
2019-04-22T20:03:34.686Z,101021.80
2019-04-22T20:06:08.839Z,101030.09
2019-04-22T20:08:42.646Z,101024.64
2019-04-22T20:11:26.536Z,101030.77
2019-04-22T20:13:55.432Z,101031.27
2019-04-22T20:16:27.252Z,101024.09
2019-04-22T20:19:13.647Z,101025.09
2019-04-22T20:21:51.707Z,101029.16
2019-04-22T20:24:14.503Z,101027.14
2019-04-22T20:27:04.181Z,101024.71
2019-04-22T20:29:42.097Z,101021.39
2019-04-22T20:32:18.824Z,101018.36
2019-04-22T20:34:57.950Z,101018.08
2019-04-22T20:37:38.556Z,101027.14
2019-04-22T20:40:10.782Z,101021.16
2019-04-22T20:42:54.390Z,101022.27
2019-04-22T20:45:30.832Z,101018.02
2019-04-22T20:47:50.989Z,101023.70
2019-04-22T20:50:41.695Z,101022.05
2019-04-22T20:53:18.640Z,101019.34
2019-04-22T20:55:53.829Z,101021.59
2019-04-22T20:58:28.570Z,101024.58
2019-04-22T21:00:56.824Z,101017.16
2019-04-22T21:03:33.803Z,101017.23
2019-04-22T21:06:16.418Z,101012.73
2019-04-22T21:09:02.294Z,101018.64
2019-04-22T21:11:29.678Z,101018.45
2019-04-22T21:14:05.935Z,101025.41
2019-04-22T21:16:56.410Z,101014.88
2019-04-22T21:19:41.661Z,101013.31
2019-04-22T21:22:08.073Z,101015.94
2019-04-22T21:24:43.553Z,101028.73
2019-04-22T21:27:40.667Z,101021.87
2019-04-22T21:29:52.174Z,101024.09
2019-04-22T21:32:34.394Z,101033.13
2019-04-22T21:35:19.834Z,101024.13
2019-04-22T21:38:00.510Z,101020.66
2019-04-22T21:40:28.794Z,101016.48
2019-04-22T21:43:12.167Z,101026.03
2019-04-22T21:45:39.275Z,101022.63
2019-04-22T21:48:28.081Z,101021.10
2019-04-22T21:50:59.800Z,101023.45
2019-04-22T21:53:47.814Z,101021.31
2019-04-22T21:56:29.146Z,101020.63
2019-04-22T21:58:56.036Z,101017.55
2019-04-22T22:01:51.147Z,101024.98
2019-04-22T22:04:16.152Z,101020.23
2019-04-22T22:06:41.253Z,101019.11
2019-04-22T22:10:04.305Z,101022.92
2019-04-22T22:12:45.157Z,101021.45
2019-04-22T22:15:18.577Z,101012.42
2019-04-22T22:17:51.622Z,101008.50
2019-04-22T22:21:12.184Z,101010.13
2019-04-22T22:23:36.356Z,101003.41
2019-04-22T22:26:04.096Z,101003.23
2019-04-22T22:28:54.472Z,101008.31
2019-04-22T22:31:31.617Z,101000.18
2019-04-22T22:34:02.060Z,101003.05
2019-04-22T22:36:35.079Z,100995.65
2019-04-22T22:39:08.685Z,100987.95
2019-04-22T22:41:34.147Z,100989.53
2019-04-22T22:44:18.790Z,100978.96
2019-04-22T22:47:03.223Z,100978.45
2019-04-22T22:49:50.173Z,100977.68
2019-04-22T22:54:58.877Z,100968.45
2019-04-22T22:57:50.249Z,100964.28
2019-04-22T23:00:11.509Z,100959.25
2019-04-22T23:03:03.418Z,100963.76
2019-04-22T23:05:35.412Z,100959.78
2019-04-22T23:08:07.744Z,100955.02
2019-04-22T23:10:52.600Z,100959.53
2019-04-22T23:13:21.804Z,100943.92
2019-04-22T23:15:44.316Z,100951.59
2019-04-22T23:18:10.063Z,100941.57
2019-04-22T23:20:47.793Z,100936.55
2019-04-22T23:23:44.059Z,100941.62
2019-04-22T23:26:40.388Z,100931.84
2019-04-22T23:29:26.215Z,100924.43
2019-04-22T23:32:07.273Z,100924.69
2019-04-22T23:34:49.798Z,100920.75
2019-04-22T23:37:25.197Z,100914.66
2019-04-22T23:40:22.062Z,100909.13
2019-04-22T23:42:53.099Z,100904.39
2019-04-22T23:45:33.200Z,100906.27
2019-04-22T23:48:03.407Z,100897.53
2019-04-22T23:50:48.014Z,100900.67
2019-04-22T23:53:55.522Z,100897.49
2019-04-22T23:56:04.361Z,100900.70
2019-04-22T23:58:52.703Z,100898.84
